createdAt,value
2022-09-20T00:04:47.639Z,11.97
2022-09-20T00:09:47.464Z,11.53
2022-09-20T00:14:47.448Z,11.46
2022-09-20T00:19:47.282Z,11.65
2022-09-20T00:24:49.073Z,11.57
2022-09-20T00:29:47.139Z,11.59
2022-09-20T00:34:47.170Z,11.56
2022-09-20T00:39:47.025Z,11.87
2022-09-20T00:44:47.030Z,11.89
2022-09-20T00:49:46.965Z,11.99
2022-09-20T00:54:49.987Z,11.80
2022-09-20T00:59:46.783Z,11.68
2022-09-20T01:04:46.846Z,12.01
2022-09-20T01:09:46.650Z,11.80
2022-09-20T01:14:46.590Z,11.67
2022-09-20T01:19:46.490Z,11.71
2022-09-20T01:24:46.452Z,11.71
2022-09-20T01:29:46.370Z,11.67
2022-09-20T01:34:46.355Z,11.64
2022-09-20T01:39:46.371Z,11.59
2022-09-20T01:44:46.765Z,11.44
2022-09-20T01:49:46.122Z,11.56
2022-09-20T01:54:49.080Z,11.67
2022-09-20T01:59:45.984Z,11.17
2022-09-20T02:04:46.102Z,11.44
2022-09-20T02:09:45.860Z,11.50
2022-09-20T02:14:45.810Z,11.65
2022-09-20T02:19:45.708Z,11.65
2022-09-20T02:24:53.195Z,12.04
2022-09-20T02:29:53.057Z,12.02
2022-09-20T02:34:53.302Z,12.46
2022-09-20T02:39:45.450Z,11.93
2022-09-20T02:44:45.516Z,11.77
2022-09-20T02:49:45.390Z,11.72
2022-09-20T02:54:56.167Z,11.86
2022-09-20T02:59:52.670Z,11.54
2022-09-20T03:04:53.065Z,11.89
2022-09-20T03:09:45.010Z,11.62
2022-09-20T03:14:45.050Z,11.59
2022-09-20T03:19:44.930Z,11.59
2022-09-20T03:24:44.996Z,11.49
2022-09-20T03:29:44.760Z,11.65
2022-09-20T03:34:52.565Z,12.08
2022-09-20T03:39:52.155Z,12.52
2022-09-20T03:44:44.601Z,11.83
2022-09-20T03:49:44.581Z,11.86
2022-09-20T03:54:47.590Z,11.96
2022-09-20T03:59:44.432Z,11.46
2022-09-20T04:04:44.870Z,11.75
2022-09-20T04:09:44.290Z,11.59
2022-09-20T04:14:44.354Z,11.46
2022-09-20T04:22:45.275Z,11.65
2022-09-20T04:27:45.011Z,11.61
2022-09-20T04:32:44.990Z,11.90
2022-09-20T04:37:44.915Z,11.93
2022-09-20T04:42:44.870Z,12.06
2022-09-20T04:47:44.789Z,12.21
2022-09-20T04:52:44.841Z,12.19
2022-09-20T04:57:45.135Z,12.27
2022-09-20T05:02:44.694Z,12.12
2022-09-20T05:07:44.545Z,12.12
2022-09-20T05:12:47.795Z,12.46
2022-09-20T05:17:44.460Z,12.09
2022-09-20T05:22:44.392Z,12.44
2022-09-20T05:27:44.407Z,12.29
2022-09-20T05:32:44.250Z,12.39
2022-09-20T05:37:44.221Z,12.44
2022-09-20T05:42:44.040Z,12.51
2022-09-20T05:47:43.984Z,12.67
2022-09-20T05:52:43.933Z,12.23
2022-09-20T05:57:43.871Z,12.34
2022-09-20T06:02:43.924Z,12.23
2022-09-20T06:07:43.727Z,12.11
2022-09-20T06:12:46.660Z,12.63
2022-09-20T06:17:43.570Z,12.08
2022-09-20T06:22:43.873Z,13.00
2022-09-20T06:27:43.451Z,12.70
2022-09-20T06:32:43.557Z,12.95
2022-09-20T06:37:43.306Z,12.60
2022-09-20T06:42:43.315Z,12.64
2022-09-20T06:47:43.226Z,12.87
2022-09-20T06:52:43.178Z,12.95
2022-09-20T07:00:21.805Z,12.96
2022-09-20T07:05:21.628Z,12.75
2022-09-20T07:10:21.610Z,12.60
2022-09-20T07:15:21.530Z,12.82
2022-09-20T07:20:21.731Z,13.12
2022-09-20T07:25:21.484Z,12.99
2022-09-20T07:30:21.401Z,13.14
2022-09-20T07:35:21.267Z,13.04
2022-09-20T07:40:21.578Z,13.49
2022-09-20T07:45:21.098Z,13.77
2022-09-20T07:50:24.041Z,14.19
2022-09-20T07:55:21.044Z,14.49
2022-09-20T08:00:21.230Z,14.71
2022-09-20T08:06:39.660Z,15.02
2022-09-20T08:11:47.125Z,15.67
2022-09-20T08:16:39.402Z,15.57
2022-09-20T08:21:39.190Z,16.01
2022-09-20T08:26:39.312Z,15.63
2022-09-20T08:31:39.623Z,15.23
2022-09-20T08:39:57.865Z,14.57
2022-09-20T08:45:00.712Z,15.88
2022-09-20T08:49:46.197Z,15.70
2022-09-20T08:54:40.163Z,15.26
2022-09-20T08:59:48.760Z,15.20
2022-09-20T09:19:25.284Z,15.56
2022-09-20T09:24:24.946Z,16.25
2022-09-20T09:29:24.767Z,16.38
2022-09-20T09:34:26.560Z,16.06
2022-09-20T09:57:01.071Z,15.57
2022-09-20T10:05:36.578Z,16.12
2022-09-20T10:10:36.083Z,16.00
2022-09-20T10:15:36.383Z,16.00
2022-09-20T10:20:36.040Z,16.95
2022-09-20T10:25:36.263Z,16.55
2022-09-20T10:30:36.206Z,17.29
2022-09-20T10:46:21.015Z,16.33
2022-09-20T10:50:57.442Z,16.52
2022-09-20T10:55:56.114Z,16.62
2022-09-20T11:00:56.034Z,17.40
2022-09-20T11:05:55.973Z,16.59
2022-09-20T11:10:56.180Z,17.23
2022-09-20T11:15:55.756Z,16.37
2022-09-20T11:20:55.993Z,16.65
2022-09-20T11:25:55.615Z,16.78
2022-09-20T11:30:55.608Z,17.04
2022-09-20T11:35:58.629Z,17.08
2022-09-20T11:40:55.498Z,16.75
2022-09-20T11:45:55.707Z,17.57
2022-09-20T11:50:55.362Z,17.10
2022-09-20T11:55:55.368Z,16.78
2022-09-20T12:00:55.133Z,16.53
2022-09-20T12:05:55.285Z,16.88
2022-09-20T12:10:55.358Z,16.48
2022-09-20T12:15:55.019Z,17.20
2022-09-20T12:20:54.904Z,18.06
2022-09-20T12:25:54.923Z,18.80
2022-09-20T12:30:54.749Z,19.13
2022-09-20T12:35:57.884Z,18.34
2022-09-20T12:43:29.498Z,14.80
2022-09-20T12:48:29.233Z,12.48
2022-09-20T12:53:29.350Z,12.05
2022-09-20T12:58:29.325Z,11.96
2022-09-20T13:03:29.349Z,11.77
2022-09-20T13:08:28.941Z,11.78
2022-09-20T13:13:29.367Z,12.06
2022-09-20T13:18:28.831Z,12.56
2022-09-20T13:23:28.813Z,13.18
2022-09-20T13:28:28.714Z,13.51
2022-09-20T13:33:31.748Z,13.76
2022-09-20T13:38:28.684Z,13.65
2022-09-20T13:43:28.505Z,14.09
2022-09-20T13:48:28.466Z,14.62
2022-09-20T13:53:40.953Z,14.75
2022-09-20T13:58:29.375Z,14.67
2022-09-20T14:03:28.290Z,15.21
2022-09-20T14:08:28.265Z,15.67
2022-09-20T14:13:28.118Z,16.33
2022-09-20T14:18:28.086Z,16.78
2022-09-20T14:23:28.066Z,16.88
2022-09-20T14:28:35.862Z,17.66
2022-09-20T14:33:38.631Z,17.55
2022-09-20T14:38:35.240Z,17.51
2022-09-20T14:43:27.896Z,18.02
